sensor_id;sensor_type;location;lat;lon;timestamp;pressure;altitude;pressure_sealevel;temperature;humidity
52469;BME280;38381;53.688;10.776;2023-04-09T00:02:49;102480.94;;;5.99;95.93
52469;BME280;38381;53.688;10.776;2023-04-09T00:07:50;102493.81;;;5.99;95.91
52469;BME280;38381;53.688;10.776;2023-04-09T00:12:50;102489.47;;;5.98;96.20
52469;BME280;38381;53.688;10.776;2023-04-09T00:17:51;102479.47;;;6.04;95.56
52469;BME280;38381;53.688;10.776;2023-04-09T00:22:51;102480.31;;;6.03;95.51
52469;BME280;38381;53.688;10.776;2023-04-09T00:27:52;102478.38;;;5.99;95.49
52469;BME280;38381;53.688;10.776;2023-04-09T00:32:52;102475.78;;;5.99;96.37
52469;BME280;38381;53.688;10.776;2023-04-09T00:37:52;102464.66;;;6.00;96.12
52469;BME280;38381;53.688;10.776;2023-04-09T00:42:53;102460.50;;;6.02;95.99
52469;BME280;38381;53.688;10.776;2023-04-09T00:47:53;102464.91;;;6.04;95.56
52469;BME280;38381;53.688;10.776;2023-04-09T00:52:54;102465.00;;;6.06;94.95
52469;BME280;38381;53.688;10.776;2023-04-09T00:57:55;102453.09;;;6.08;95.62
52469;BME280;38381;53.688;10.776;2023-04-09T01:02:56;102453.81;;;6.06;95.59
52469;BME280;38381;53.688;10.776;2023-04-09T01:08:08;102451.31;;;6.07;96.13
52469;BME280;38381;53.688;10.776;2023-04-09T01:13:19;102456.47;;;6.07;95.73
52469;BME280;38381;53.688;10.776;2023-04-09T01:18:51;102462.59;;;6.09;95.41
52469;BME280;38381;53.688;10.776;2023-04-09T01:24:01;102466.13;;;6.11;95.37
52469;BME280;38381;53.688;10.776;2023-04-09T01:29:08;102466.78;;;6.07;95.17
52469;BME280;38381;53.688;10.776;2023-04-09T01:34:10;102463.56;;;5.95;96.25
52469;BME280;38381;53.688;10.776;2023-04-09T01:39:11;102470.78;;;6.02;96.36
52469;BME280;38381;53.688;10.776;2023-04-09T01:44:12;102467.56;;;6.06;96.18
52469;BME280;38381;53.688;10.776;2023-04-09T01:49:13;102466.78;;;6.07;96.41
52469;BME280;38381;53.688;10.776;2023-04-09T01:54:15;102459.06;;;6.07;95.50
52469;BME280;38381;53.688;10.776;2023-04-09T01:59:16;102464.75;;;6.01;97.49
52469;BME280;38381;53.688;10.776;2023-04-09T02:09:33;102452.75;;;6.02;96.50
52469;BME280;38381;53.688;10.776;2023-04-09T02:14:36;102454.59;;;6.04;96.60
52469;BME280;38381;53.688;10.776;2023-04-09T02:19:41;102449.78;;;6.11;96.27
52469;BME280;38381;53.688;10.776;2023-04-09T02:24:42;102453.81;;;6.06;96.42
52469;BME280;38381;53.688;10.776;2023-04-09T02:29:43;102447.13;;;6.09;96.55
52469;BME280;38381;53.688;10.776;2023-04-09T02:34:43;102446.31;;;6.10;96.22
52469;BME280;38381;53.688;10.776;2023-04-09T02:39:45;102428.38;;;6.12;96.38
52469;BME280;38381;53.688;10.776;2023-04-09T02:44:45;102423.31;;;6.13;95.35
52469;BME280;38381;53.688;10.776;2023-04-09T02:49:45;102423.00;;;6.07;96.40
52469;BME280;38381;53.688;10.776;2023-04-09T02:54:46;102433.84;;;6.01;97.35
52469;BME280;38381;53.688;10.776;2023-04-09T02:59:46;102418.53;;;6.04;96.12
52469;BME280;38381;53.688;10.776;2023-04-09T03:04:46;102419.84;;;5.96;96.87
52469;BME280;38381;53.688;10.776;2023-04-09T03:09:47;102415.91;;;6.03;96.32
52469;BME280;38381;53.688;10.776;2023-04-09T03:14:47;102413.34;;;6.03;96.28
52469;BME280;38381;53.688;10.776;2023-04-09T03:19:48;102411.72;;;6.05;95.92
52469;BME280;38381;53.688;10.776;2023-04-09T03:24:48;102415.91;;;6.03;96.10
52469;BME280;38381;53.688;10.776;2023-04-09T03:29:48;102411.78;;;6.07;95.90
52469;BME280;38381;53.688;10.776;2023-04-09T03:34:49;102426.44;;;6.08;96.16
52469;BME280;38381;53.688;10.776;2023-04-09T03:39:49;102422.09;;;6.07;95.63
52469;BME280;38381;53.688;10.776;2023-04-09T03:44:52;102428.28;;;6.10;95.02
52469;BME280;38381;53.688;10.776;2023-04-09T03:49:53;102423.13;;;6.10;95.37
52469;BME280;38381;53.688;10.776;2023-04-09T03:54:53;102412.84;;;6.10;95.00
52469;BME280;38381;53.688;10.776;2023-04-09T03:59:54;102414.63;;;6.11;94.91
52469;BME280;38381;53.688;10.776;2023-04-09T04:04:54;102410.44;;;6.13;95.03
52469;BME280;38381;53.688;10.776;2023-04-09T04:09:55;102414.53;;;6.10;94.84
52469;BME280;38381;53.688;10.776;2023-04-09T04:14:55;102423.69;;;6.04;95.36
52469;BME280;38381;53.688;10.776;2023-04-09T04:19:56;102410.03;;;6.06;94.93
52469;BME280;38381;53.688;10.776;2023-04-09T04:24:56;102417.84;;;6.07;95.25
52469;BME280;38381;53.688;10.776;2023-04-09T04:29:57;102422.03;;;6.05;95.24
52469;BME280;38381;53.688;10.776;2023-04-09T04:34:59;102415.09;;;6.04;95.17
52469;BME280;38381;53.688;10.776;2023-04-09T04:40:00;102415.25;;;5.91;96.87
52469;BME280;38381;53.688;10.776;2023-04-09T04:45:01;102428.25;;;5.94;96.72
52469;BME280;38381;53.688;10.776;2023-04-09T04:50:01;102423.38;;;5.98;96.19
52469;BME280;38381;53.688;10.776;2023-04-09T04:55:02;102423.13;;;5.94;95.63
52469;BME280;38381;53.688;10.776;2023-04-09T05:00:02;102423.13;;;5.94;96.21
52469;BME280;38381;53.688;10.776;2023-04-09T05:05:03;102422.50;;;5.98;95.66
52469;BME280;38381;53.688;10.776;2023-04-09T05:10:04;102432.00;;;5.99;94.85
52469;BME280;38381;53.688;10.776;2023-04-09T05:15:05;102432.97;;;6.01;95.17
52469;BME280;38381;53.688;10.776;2023-04-09T05:20:06;102434.91;;;6.05;95.16
52469;BME280;38381;53.688;10.776;2023-04-09T05:25:07;102436.56;;;6.04;95.42
52469;BME280;38381;53.688;10.776;2023-04-09T05:30:08;102436.88;;;6.11;95.18
52469;BME280;38381;53.688;10.776;2023-04-09T05:35:09;102445.53;;;6.11;94.60
52469;BME280;38381;53.688;10.776;2023-04-09T05:40:10;102453.00;;;6.07;95.78
52469;BME280;38381;53.688;10.776;2023-04-09T05:45:11;102453.72;;;6.04;95.68
52469;BME280;38381;53.688;10.776;2023-04-09T05:50:12;102450.38;;;6.05;95.50
52469;BME280;38381;53.688;10.776;2023-04-09T05:55:12;102458.31;;;6.10;95.63
52469;BME280;38381;53.688;10.776;2023-04-09T06:00:13;102452.44;;;6.12;95.14
52469;BME280;38381;53.688;10.776;2023-04-09T06:05:14;102451.88;;;6.18;95.08
52469;BME280;38381;53.688;10.776;2023-04-09T06:10:15;102444.28;;;6.21;94.91
52469;BME280;38381;53.688;10.776;2023-04-09T06:15:15;102447.13;;;6.26;94.58
52469;BME280;38381;53.688;10.776;2023-04-09T06:20:16;102446.31;;;6.27;95.05
52469;BME280;38381;53.688;10.776;2023-04-09T06:25:16;102455.97;;;6.31;94.57
52469;BME280;38381;53.688;10.776;2023-04-09T06:30:17;102456.28;;;6.37;94.66
52469;BME280;38381;53.688;10.776;2023-04-09T06:35:18;102448.75;;;6.41;94.14
52469;BME280;38381;53.688;10.776;2023-04-09T06:40:18;102453.22;;;6.44;94.41
52469;BME280;38381;53.688;10.776;2023-04-09T06:45:19;102453.03;;;6.41;94.32
52469;BME280;38381;53.688;10.776;2023-04-09T06:50:20;102453.66;;;6.53;94.20
52469;BME280;38381;53.688;10.776;2023-04-09T06:55:20;102447.94;;;6.59;94.24
52469;BME280;38381;53.688;10.776;2023-04-09T07:00:21;102461.47;;;6.55;93.30
52469;BME280;38381;53.688;10.776;2023-04-09T07:05:22;102465.25;;;6.61;93.13
52469;BME280;38381;53.688;10.776;2023-04-09T07:10:23;102460.31;;;6.66;92.75
52469;BME280;38381;53.688;10.776;2023-04-09T07:15:23;102462.41;;;6.73;92.95
52469;BME280;38381;53.688;10.776;2023-04-09T07:20:24;102462.63;;;6.78;93.56
52469;BME280;38381;53.688;10.776;2023-04-09T07:25:24;102458.81;;;6.88;92.32
52469;BME280;38381;53.688;10.776;2023-04-09T07:30:25;102457.91;;;7.05;91.84
52469;BME280;38381;53.688;10.776;2023-04-09T07:35:26;102456.13;;;6.86;92.55
52469;BME280;38381;53.688;10.776;2023-04-09T07:40:26;102454.97;;;6.97;92.14
52469;BME280;38381;53.688;10.776;2023-04-09T07:45:27;102463.00;;;7.03;91.72
52469;BME280;38381;53.688;10.776;2023-04-09T07:50:28;102460.72;;;7.10;91.37
52469;BME280;38381;53.688;10.776;2023-04-09T07:55:28;102469.56;;;7.15;91.29
52469;BME280;38381;53.688;10.776;2023-04-09T08:00:29;102468.00;;;7.00;89.36
52469;BME280;38381;53.688;10.776;2023-04-09T08:05:29;102474.59;;;7.12;89.08
52469;BME280;38381;53.688;10.776;2023-04-09T08:10:30;102474.88;;;7.18;89.27
52469;BME280;38381;53.688;10.776;2023-04-09T08:15:30;102474.63;;;7.31;88.70
52469;BME280;38381;53.688;10.776;2023-04-09T08:20:31;102474.34;;;7.25;88.66
52469;BME280;38381;53.688;10.776;2023-04-09T08:25:32;102470.44;;;7.33;88.45
52469;BME280;38381;53.688;10.776;2023-04-09T08:30:32;102469.75;;;7.37;88.83
52469;BME280;38381;53.688;10.776;2023-04-09T08:35:33;102466.50;;;7.41;89.21
52469;BME280;38381;53.688;10.776;2023-04-09T08:40:36;102475.09;;;7.40;89.02
52469;BME280;38381;53.688;10.776;2023-04-09T08:45:39;102473.22;;;7.56;88.36
52469;BME280;38381;53.688;10.776;2023-04-09T08:50:40;102465.53;;;7.57;88.27
52469;BME280;38381;53.688;10.776;2023-04-09T08:55:44;102474.53;;;7.65;88.12
52469;BME280;38381;53.688;10.776;2023-04-09T09:00:44;102471.56;;;7.58;87.27
52469;BME280;38381;53.688;10.776;2023-04-09T09:05:45;102471.88;;;7.64;87.12
52469;BME280;38381;53.688;10.776;2023-04-09T09:10:46;102470.94;;;7.81;86.97
52469;BME280;38381;53.688;10.776;2023-04-09T09:15:47;102476.50;;;7.91;86.69
52469;BME280;38381;53.688;10.776;2023-04-09T09:20:49;102474.88;;;7.93;86.77
52469;BME280;38381;53.688;10.776;2023-04-09T09:25:50;102475.63;;;7.90;86.58
52469;BME280;38381;53.688;10.776;2023-04-09T09:30:50;102473.94;;;7.91;86.76
52469;BME280;38381;53.688;10.776;2023-04-09T09:35:52;102475.44;;;8.05;85.56
52469;BME280;38381;53.688;10.776;2023-04-09T09:40:57;102473.03;;;8.10;85.74
52469;BME280;38381;53.688;10.776;2023-04-09T09:46:01;102474.75;;;8.09;84.86
52469;BME280;38381;53.688;10.776;2023-04-09T09:51:07;102473.88;;;8.09;84.96
52469;BME280;38381;53.688;10.776;2023-04-09T09:56:17;102463.63;;;8.10;85.48
52469;BME280;38381;53.688;10.776;2023-04-09T10:01:20;102456.41;;;8.22;85.22
52469;BME280;38381;53.688;10.776;2023-04-09T10:06:23;102465.91;;;8.23;84.70
52469;BME280;38381;53.688;10.776;2023-04-09T10:11:24;102464.13;;;8.42;84.35
52469;BME280;38381;53.688;10.776;2023-04-09T10:16:25;102458.81;;;8.39;83.99
52469;BME280;38381;53.688;10.776;2023-04-09T10:21:42;102464.78;;;8.38;84.16
52469;BME280;38381;53.688;10.776;2023-04-09T10:26:44;102465.56;;;8.35;83.97
52469;BME280;38381;53.688;10.776;2023-04-09T10:32:06;102458.03;;;8.20;83.91
52469;BME280;38381;53.688;10.776;2023-04-09T10:37:21;102456.84;;;8.33;84.05
52469;BME280;38381;53.688;10.776;2023-04-09T10:42:28;102461.88;;;8.50;83.81
52469;BME280;38381;53.688;10.776;2023-04-09T10:47:34;102460.44;;;8.56;84.43
52469;BME280;38381;53.688;10.776;2023-04-09T10:52:39;102451.88;;;8.57;83.52
52469;BME280;38381;53.688;10.776;2023-04-09T10:57:41;102455.44;;;8.61;84.09
52469;BME280;38381;53.688;10.776;2023-04-09T11:02:44;102452.50;;;8.73;83.43
52469;BME280;38381;53.688;10.776;2023-04-09T11:07:56;102449.53;;;8.84;83.72
52469;BME280;38381;53.688;10.776;2023-04-09T11:12:58;102437.84;;;8.73;83.07
52469;BME280;38381;53.688;10.776;2023-04-09T11:17:59;102448.88;;;8.69;83.22
52469;BME280;38381;53.688;10.776;2023-04-09T11:22:59;102445.13;;;8.82;83.46
52469;BME280;38381;53.688;10.776;2023-04-09T11:28:02;102444.28;;;8.83;82.63
52469;BME280;38381;53.688;10.776;2023-04-09T11:33:03;102445.31;;;8.86;83.83
52469;BME280;38381;53.688;10.776;2023-04-09T11:38:08;102434.81;;;9.04;83.03
52469;BME280;38381;53.688;10.776;2023-04-09T11:43:08;102435.28;;;9.17;82.67
52469;BME280;38381;53.688;10.776;2023-04-09T11:48:09;102434.63;;;9.22;82.91
52469;BME280;38381;53.688;10.776;2023-04-09T11:53:18;102426.81;;;9.21;82.60
52469;BME280;38381;53.688;10.776;2023-04-09T11:58:24;102425.69;;;9.14;82.86
52469;BME280;38381;53.688;10.776;2023-04-09T12:03:29;102422.84;;;9.29;82.33
52469;BME280;38381;53.688;10.776;2023-04-09T12:08:29;102428.28;;;9.37;82.29
52469;BME280;38381;53.688;10.776;2023-04-09T12:13:33;102427.53;;;9.39;82.29
52469;BME280;38381;53.688;10.776;2023-04-09T12:18:37;102429.66;;;9.50;81.21
52469;BME280;38381;53.688;10.776;2023-04-09T12:23:37;102428.56;;;9.67;81.41
52469;BME280;38381;53.688;10.776;2023-04-09T12:28:38;102426.09;;;9.70;81.13
52469;BME280;38381;53.688;10.776;2023-04-09T12:33:38;102420.41;;;9.80;79.96
52469;BME280;38381;53.688;10.776;2023-04-09T12:38:39;102416.97;;;9.81;79.96
52469;BME280;38381;53.688;10.776;2023-04-09T12:43:40;102409.28;;;9.83;79.92
52469;BME280;38381;53.688;10.776;2023-04-09T12:48:42;102405.63;;;10.02;78.51
52469;BME280;38381;53.688;10.776;2023-04-09T12:53:42;102402.31;;;10.06;77.65
52469;BME280;38381;53.688;10.776;2023-04-09T12:58:43;102398.78;;;10.04;78.39
52469;BME280;38381;53.688;10.776;2023-04-09T13:03:43;102394.75;;;10.12;77.23
52469;BME280;38381;53.688;10.776;2023-04-09T13:08:44;102395.16;;;9.99;76.33
52469;BME280;38381;53.688;10.776;2023-04-09T13:13:44;102398.84;;;10.05;77.96
52469;BME280;38381;53.688;10.776;2023-04-09T13:18:45;102397.75;;;10.24;77.67
52469;BME280;38381;53.688;10.776;2023-04-09T13:23:47;102385.00;;;10.05;77.44
52469;BME280;38381;53.688;10.776;2023-04-09T13:28:47;102381.19;;;10.21;76.85
52469;BME280;38381;53.688;10.776;2023-04-09T13:33:47;102377.69;;;10.19;76.30
52469;BME280;38381;53.688;10.776;2023-04-09T13:38:48;102365.72;;;10.22;76.23
52469;BME280;38381;53.688;10.776;2023-04-09T13:43:48;102366.22;;;10.36;77.06
52469;BME280;38381;53.688;10.776;2023-04-09T13:48:48;102357.75;;;10.42;76.81
52469;BME280;38381;53.688;10.776;2023-04-09T13:53:49;102358.97;;;10.53;75.36
52469;BME280;38381;53.688;10.776;2023-04-09T13:58:49;102354.97;;;10.63;75.77
52469;BME280;38381;53.688;10.776;2023-04-09T14:03:50;102354.97;;;10.63;75.27
52469;BME280;38381;53.688;10.776;2023-04-09T14:08:51;102347.13;;;10.61;74.89
52469;BME280;38381;53.688;10.776;2023-04-09T14:13:51;102346.25;;;10.61;74.91
52469;BME280;38381;53.688;10.776;2023-04-09T14:18:51;102337.59;;;10.60;74.35
52469;BME280;38381;53.688;10.776;2023-04-09T14:23:52;102330.94;;;10.69;75.16
52469;BME280;38381;53.688;10.776;2023-04-09T14:28:52;102336.63;;;10.85;74.62
52469;BME280;38381;53.688;10.776;2023-04-09T14:33:53;102335.22;;;10.97;74.64
52469;BME280;38381;53.688;10.776;2023-04-09T14:38:53;102326.69;;;11.01;73.18
52469;BME280;38381;53.688;10.776;2023-04-09T14:43:54;102324.56;;;11.16;72.41
52469;BME280;38381;53.688;10.776;2023-04-09T14:48:54;102324.38;;;11.10;72.36
52469;BME280;38381;53.688;10.776;2023-04-09T14:53:55;102320.91;;;11.10;73.35
52469;BME280;38381;53.688;10.776;2023-04-09T14:58:57;102310.91;;;11.23;72.09
52469;BME280;38381;53.688;10.776;2023-04-09T15:03:57;102299.00;;;11.30;72.31
52469;BME280;38381;53.688;10.776;2023-04-09T15:08:58;102305.28;;;11.38;72.78
52469;BME280;38381;53.688;10.776;2023-04-09T15:13:58;102298.78;;;11.54;71.96
52469;BME280;38381;53.688;10.776;2023-04-09T15:18:59;102302.94;;;11.47;71.56
52469;BME280;38381;53.688;10.776;2023-04-09T15:23:59;102303.97;;;11.53;71.06
52469;BME280;38381;53.688;10.776;2023-04-09T15:29:01;102298.81;;;11.56;72.01
52469;BME280;38381;53.688;10.776;2023-04-09T15:34:03;102289.34;;;11.58;70.12
52469;BME280;38381;53.688;10.776;2023-04-09T15:39:04;102288.16;;;11.45;70.21
52469;BME280;38381;53.688;10.776;2023-04-09T15:44:04;102289.53;;;11.32;71.30
52469;BME280;38381;53.688;10.776;2023-04-09T15:49:07;102279.59;;;11.49;70.80
52469;BME280;38381;53.688;10.776;2023-04-09T15:54:07;102279.31;;;11.38;71.62
52469;BME280;38381;53.688;10.776;2023-04-09T15:59:08;102276.84;;;11.43;70.09
52469;BME280;38381;53.688;10.776;2023-04-09T16:04:08;102272.09;;;11.28;70.68
52469;BME280;38381;53.688;10.776;2023-04-09T16:09:09;102280.72;;;11.27;70.95
52469;BME280;38381;53.688;10.776;2023-04-09T16:14:09;102286.88;;;11.31;70.32
52469;BME280;38381;53.688;10.776;2023-04-09T16:19:10;102290.47;;;11.34;71.92
52469;BME280;38381;53.688;10.776;2023-04-09T16:24:11;102282.56;;;11.31;72.34
52469;BME280;38381;53.688;10.776;2023-04-09T16:29:14;102284.13;;;10.94;73.54
52469;BME280;38381;53.688;10.776;2023-04-09T16:34:17;102281.47;;;10.93;74.06
52469;BME280;38381;53.688;10.776;2023-04-09T16:39:18;102273.47;;;10.85;74.24
52469;BME280;38381;53.688;10.776;2023-04-09T16:44:18;102269.66;;;10.74;74.03
52469;BME280;38381;53.688;10.776;2023-04-09T16:49:19;102269.28;;;10.61;74.44
52469;BME280;38381;53.688;10.776;2023-04-09T16:54:19;102267.34;;;10.54;74.86
52469;BME280;38381;53.688;10.776;2023-04-09T16:59:20;102264.72;;;10.53;75.11
52469;BME280;38381;53.688;10.776;2023-04-09T17:04:20;102254.19;;;10.48;74.47
52469;BME280;38381;53.688;10.776;2023-04-09T17:09:21;102261.50;;;10.33;75.23
52469;BME280;38381;53.688;10.776;2023-04-09T17:14:21;102266.69;;;10.33;75.52
52469;BME280;38381;53.688;10.776;2023-04-09T17:19:22;102263.91;;;10.28;75.17
52469;BME280;38381;53.688;10.776;2023-04-09T17:24:22;102259.59;;;10.28;75.84
52469;BME280;38381;53.688;10.776;2023-04-09T17:29:23;102260.25;;;10.21;75.41
52469;BME280;38381;53.688;10.776;2023-04-09T17:34:23;102258.06;;;10.08;75.85
52469;BME280;38381;53.688;10.776;2023-04-09T17:39:25;102269.69;;;9.94;76.17
52469;BME280;38381;53.688;10.776;2023-04-09T17:44:28;102268.88;;;9.95;76.20
52469;BME280;38381;53.688;10.776;2023-04-09T17:49:30;102258.50;;;9.69;76.60
52469;BME280;38381;53.688;10.776;2023-04-09T17:54:32;102263.59;;;9.66;76.81
52469;BME280;38381;53.688;10.776;2023-04-09T17:59:34;102269.22;;;9.54;77.09
52469;BME280;38381;53.688;10.776;2023-04-09T18:04:34;102278.06;;;9.35;77.70
52469;BME280;38381;53.688;10.776;2023-04-09T18:09:35;102271.72;;;9.27;78.10
52469;BME280;38381;53.688;10.776;2023-04-09T18:14:38;102283.38;;;9.16;78.56
52469;BME280;38381;53.688;10.776;2023-04-09T18:19:38;102278.63;;;9.04;79.02
52469;BME280;38381;53.688;10.776;2023-04-09T18:24:39;102281.44;;;8.86;79.70
52469;BME280;38381;53.688;10.776;2023-04-09T18:29:39;102282.16;;;8.82;79.74
52469;BME280;38381;53.688;10.776;2023-04-09T18:34:40;102287.72;;;8.70;79.92
52469;BME280;38381;53.688;10.776;2023-04-09T18:39:41;102277.25;;;8.67;80.42
52469;BME280;38381;53.688;10.776;2023-04-09T18:44:41;102288.34;;;8.42;81.14
52469;BME280;38381;53.688;10.776;2023-04-09T18:49:41;102292.19;;;8.31;81.07
52469;BME280;38381;53.688;10.776;2023-04-09T18:54:42;102284.28;;;8.27;81.37
52469;BME280;38381;53.688;10.776;2023-04-09T18:59:42;102291.94;;;8.24;81.77
52469;BME280;38381;53.688;10.776;2023-04-09T19:04:44;102288.00;;;8.13;81.77
52469;BME280;38381;53.688;10.776;2023-04-09T19:09:45;102277.94;;;7.98;81.85
52469;BME280;38381;53.688;10.776;2023-04-09T19:14:46;102284.56;;;7.92;82.59
52469;BME280;38381;53.688;10.776;2023-04-09T19:19:46;102297.25;;;7.87;82.83
52469;BME280;38381;53.688;10.776;2023-04-09T19:24:47;102296.94;;;7.79;83.34
52469;BME280;38381;53.688;10.776;2023-04-09T19:29:48;102298.16;;;7.68;83.43
52469;BME280;38381;53.688;10.776;2023-04-09T19:34:48;102305.66;;;7.62;83.57
52469;BME280;38381;53.688;10.776;2023-04-09T19:39:48;102305.66;;;7.62;83.19
52469;BME280;38381;53.688;10.776;2023-04-09T19:44:49;102312.94;;;7.51;83.39
52469;BME280;38381;53.688;10.776;2023-04-09T19:49:50;102326.53;;;7.47;82.61
52469;BME280;38381;53.688;10.776;2023-04-09T19:54:54;102321.88;;;7.40;82.51
52469;BME280;38381;53.688;10.776;2023-04-09T19:59:55;102324.00;;;7.29;82.84
52469;BME280;38381;53.688;10.776;2023-04-09T20:04:55;102311.38;;;7.16;82.72
52469;BME280;38381;53.688;10.776;2023-04-09T20:09:56;102314.47;;;7.09;83.14
52469;BME280;38381;53.688;10.776;2023-04-09T20:14:58;102313.91;;;6.96;83.07
52469;BME280;38381;53.688;10.776;2023-04-09T20:20:01;102314.38;;;6.88;82.60
52469;BME280;38381;53.688;10.776;2023-04-09T20:25:01;102317.91;;;6.72;82.94
52469;BME280;38381;53.688;10.776;2023-04-09T20:30:02;102318.28;;;6.61;83.25
52469;BME280;38381;53.688;10.776;2023-04-09T20:35:03;102320.50;;;6.54;83.40
52469;BME280;38381;53.688;10.776;2023-04-09T20:40:05;102308.06;;;6.45;83.80
52469;BME280;38381;53.688;10.776;2023-04-09T20:45:07;102306.72;;;6.35;83.62
52469;BME280;38381;53.688;10.776;2023-04-09T20:50:08;102301.94;;;6.25;83.84
52469;BME280;38381;53.688;10.776;2023-04-09T20:55:08;102296.88;;;6.27;83.23
52469;BME280;38381;53.688;10.776;2023-04-09T21:00:09;102301.50;;;6.16;83.74
52469;BME280;38381;53.688;10.776;2023-04-09T21:05:10;102298.72;;;6.11;83.74
52469;BME280;38381;53.688;10.776;2023-04-09T21:10:10;102297.75;;;6.09;84.14
52469;BME280;38381;53.688;10.776;2023-04-09T21:15:11;102290.50;;;6.02;85.04
52469;BME280;38381;53.688;10.776;2023-04-09T21:20:11;102279.03;;;5.95;85.79
52469;BME280;38381;53.688;10.776;2023-04-09T21:25:11;102276.34;;;5.94;86.30
52469;BME280;38381;53.688;10.776;2023-04-09T21:30:12;102274.41;;;5.90;87.14
52469;BME280;38381;53.688;10.776;2023-04-09T21:35:12;102279.25;;;5.83;86.11
52469;BME280;38381;53.688;10.776;2023-04-09T21:40:13;102279.13;;;5.80;86.11
52469;BME280;38381;53.688;10.776;2023-04-09T21:45:13;102281.53;;;5.77;86.53
52469;BME280;38381;53.688;10.776;2023-04-09T21:50:14;102280.44;;;5.72;87.23
52469;BME280;38381;53.688;10.776;2023-04-09T21:55:14;102285.41;;;5.69;87.19
52469;BME280;38381;53.688;10.776;2023-04-09T22:00:15;102280.25;;;5.69;87.19
52469;BME280;38381;53.688;10.776;2023-04-09T22:05:15;102287.66;;;5.63;86.88
52469;BME280;38381;53.688;10.776;2023-04-09T22:10:16;102287.34;;;5.57;87.60
52469;BME280;38381;53.688;10.776;2023-04-09T22:15:18;102292.19;;;5.51;87.18
52469;BME280;38381;53.688;10.776;2023-04-09T22:20:18;102284.16;;;5.44;87.23
52469;BME280;38381;53.688;10.776;2023-04-09T22:25:19;102284.06;;;5.43;87.96
52469;BME280;38381;53.688;10.776;2023-04-09T22:30:20;102285.84;;;5.44;87.84
52469;BME280;38381;53.688;10.776;2023-04-09T22:35:22;102284.16;;;5.44;87.84
52469;BME280;38381;53.688;10.776;2023-04-09T22:40:23;102287.59;;;5.45;87.94
52469;BME280;38381;53.688;10.776;2023-04-09T22:45:23;102284.56;;;5.36;88.06
52469;BME280;38381;53.688;10.776;2023-04-09T22:50:27;102286.25;;;5.35;88.09
52469;BME280;38381;53.688;10.776;2023-04-09T22:55:27;102281.66;;;5.30;88.16
52469;BME280;38381;53.688;10.776;2023-04-09T23:00:28;102286.72;;;5.28;88.75
52469;BME280;38381;53.688;10.776;2023-04-09T23:05:28;102281.44;;;5.25;89.21
52469;BME280;38381;53.688;10.776;2023-04-09T23:10:29;102272.25;;;5.14;90.62
52469;BME280;38381;53.688;10.776;2023-04-09T23:15:30;102284.69;;;5.06;92.09
52469;BME280;38381;53.688;10.776;2023-04-09T23:20:30;102268.25;;;5.02;92.48
52469;BME280;38381;53.688;10.776;2023-04-09T23:25:30;102271.28;;;5.12;92.54
52469;BME280;38381;53.688;10.776;2023-04-09T23:30:31;102274.72;;;5.12;91.83
52469;BME280;38381;53.688;10.776;2023-04-09T23:35:32;102274.09;;;5.16;91.43
52469;BME280;38381;53.688;10.776;2023-04-09T23:40:32;102267.28;;;5.00;92.47
52469;BME280;38381;53.688;10.776;2023-04-09T23:45:33;102263.97;;;5.03;92.00
52469;BME280;38381;53.688;10.776;2023-04-09T23:50:36;102253.59;;;5.01;92.18
52469;BME280;38381;53.688;10.776;2023-04-09T23:55:37;102255.44;;;5.04;92.02
